Time;durP1;ratioP1;P1;durP2;ratioP2;P2;SDS_P1;SDS_P2;PMS_P1;PMS_P2;Temp;Humidity;BMP_temperature;BMP_pressure;BME280_temperature;BME280_humidity;BME280_pressure;Samples;Min_cycle;Max_cycle;Signal;HPM_P1;HPM_P2
2023/03/24 00:02:12;;;;;;;5.53;4.18;;;9.20;99.90;;;;;;5072896;28;20049;-87
2023/03/24 00:04:46;;;;;;;4.65;4.25;;;9.20;99.90;;;;;;5072746;28;20044;-87
2023/03/24 00:07:15;;;;;;;5.03;4.63;;;9.20;99.90;;;;;;5056959;28;20043;-87
2023/03/24 00:09:43;;;;;;;6.57;4.05;;;9.10;99.90;;;;;;5056425;28;20032;-87
2023/03/24 00:12:13;;;;;;;4.63;4.13;;;9.00;99.90;;;;;;5058241;28;20267;-88
2023/03/24 00:14:41;;;;;;;5.05;3.40;;;8.70;99.90;;;;;;5075412;28;20035;-87
2023/03/24 00:17:08;;;;;;;6.70;4.65;;;8.50;99.90;;;;;;5058693;28;20049;-87
2023/03/24 00:19:37;;;;;;;5.47;4.38;;;8.50;99.90;;;;;;5072422;28;20043;-87
2023/03/24 00:22:07;;;;;;;4.78;4.38;;;8.50;99.90;;;;;;5071706;28;20391;-87
2023/03/24 00:24:34;;;;;;;6.70;4.53;;;8.70;99.90;;;;;;5071367;28;20037;-87
2023/03/24 00:27:03;;;;;;;6.93;5.20;;;8.80;99.90;;;;;;5071532;28;20063;-87
2023/03/24 00:29:32;;;;;;;5.03;4.63;;;8.90;99.90;;;;;;5073395;28;20045;-87
2023/03/24 00:32:00;;;;;;;6.78;3.80;;;8.80;99.90;;;;;;5072627;28;20025;-87
2023/03/24 00:34:28;;;;;;;7.07;5.30;;;8.50;99.90;;;;;;5070844;28;20048;-87
2023/03/24 00:36:56;;;;;;;5.57;4.65;;;8.40;99.90;;;;;;5071376;28;20044;-88
2023/03/24 00:39:23;;;;;;;4.93;4.20;;;8.40;99.90;;;;;;5060172;28;20033;-87
2023/03/24 00:41:54;;;;;;;5.15;4.68;;;8.40;99.90;;;;;;5071568;28;20052;-88
2023/03/24 00:44:21;;;;;;;5.25;4.75;;;8.60;99.90;;;;;;5054568;28;20049;-88
2023/03/24 00:46:57;;;;;;;6.82;4.38;;;8.70;99.90;;;;;;5072834;28;20053;-87
2023/03/24 00:49:43;;;;;;;6.28;5.07;;;8.80;99.90;;;;;;5057173;28;20067;-87
2023/03/24 00:52:14;;;;;;;6.65;5.95;;;9.00;99.90;;;;;;5054942;28;20119;-87
2023/03/24 00:54:44;;;;;;;6.27;4.97;;;9.10;99.90;;;;;;5070309;28;20071;-86
2023/03/24 00:57:20;;;;;;;6.47;5.30;;;9.20;99.90;;;;;;5071411;28;20287;-87
2023/03/24 00:59:49;;;;;;;8.05;4.63;;;9.20;99.90;;;;;;5086000;28;20043;-86
2023/03/24 01:02:23;;;;;;;5.55;4.95;;;9.30;99.90;;;;;;5052621;28;20051;-87
2023/03/24 01:04:53;;;;;;;17.08;5.30;;;8.70;99.90;;;;;;5052531;28;20059;-87
2023/03/24 01:07:23;;;;;;;5.53;5.07;;;8.50;99.90;;;;;;5070269;28;20496;-87
2023/03/24 01:09:58;;;;;;;5.15;4.65;;;8.30;99.90;;;;;;5068425;28;20047;-87
2023/03/24 01:12:29;;;;;;;5.38;4.88;;;8.20;99.90;;;;;;5068232;28;20025;-87
2023/03/24 01:15:01;;;;;;;;;;;8.40;99.90;;;;;;5068675;28;20032;-87
2023/03/24 01:17:30;;;;;;;7.90;5.25;;;8.50;99.90;;;;;;5068856;28;19925;-87
2023/03/24 01:19:58;;;;;;;6.53;5.68;;;8.70;99.90;;;;;;5069435;28;20043;-87
2023/03/24 01:22:28;;;;;;;12.02;6.97;;;8.60;99.90;;;;;;5068231;28;20489;-88
2023/03/24 01:24:56;;;;;;;6.10;4.90;;;8.50;99.90;;;;;;5061554;28;20071;-87
2023/03/24 01:27:24;;;;;;;7.68;5.05;;;8.40;99.90;;;;;;5052181;28;20043;-86
2023/03/24 01:29:58;;;;;;;7.05;5.88;;;8.20;99.90;;;;;;5069559;28;20056;-87
2023/03/24 01:32:27;;;;;;;5.30;4.38;;;7.90;99.90;;;;;;5057658;28;20045;-87
2023/03/24 01:34:56;;;;;;;5.60;5.07;;;7.60;99.90;;;;;;5060721;28;20055;-87
2023/03/24 01:37:26;;;;;;;4.85;4.40;;;7.60;99.90;;;;;;5047181;28;20897;-86
2023/03/24 01:39:55;;;;;;;6.05;5.45;;;7.50;99.90;;;;;;5031468;28;20064;-87
2023/03/24 01:42:25;;;;;;;6.70;6.07;;;7.60;99.90;;;;;;5025148;28;20052;-87
2023/03/24 01:45:00;;;;;;;8.52;5.38;;;7.60;99.90;;;;;;5025284;28;20052;-87
2023/03/24 01:47:28;;;;;;;8.00;5.28;;;7.70;99.90;;;;;;5011155;28;20052;-87
2023/03/24 01:50:01;;;;;;;4.90;4.50;;;7.80;99.90;;;;;;5046943;28;20517;-86
2023/03/24 01:52:34;;;;;;;10.25;4.68;;;7.80;99.90;;;;;;5026307;28;20509;-86
2023/03/24 01:55:10;;;;;;;9.15;7.47;;;7.90;99.90;;;;;;5048210;28;20053;-87
2023/03/24 01:57:42;;;;;;;6.82;6.18;;;7.90;99.90;;;;;;5047586;28;20045;-87
2023/03/24 02:00:13;;;;;;;9.82;4.88;;;7.80;99.90;;;;;;5030725;28;20049;-87
2023/03/24 02:03:05;;;;;;;8.52;5.82;;;7.70;99.90;;;;;;5015869;28;20471;-87
2023/03/24 02:05:44;;;;;;;6.85;5.55;;;7.60;99.90;;;;;;5023584;28;20475;-87
2023/03/24 02:08:23;;;;;;;6.83;6.23;;;7.70;99.90;;;;;;5053844;28;20064;-87
2023/03/24 02:10:54;;;;;;;6.72;6.13;;;7.80;99.90;;;;;;5026698;28;20521;-87
2023/03/24 02:13:24;;;;;;;7.10;6.50;;;8.10;99.90;;;;;;5044837;28;20063;-87
2023/03/24 02:16:17;;;;;;;6.97;6.18;;;8.30;99.90;;;;;;5030362;28;20048;-88
2023/03/24 02:18:59;;;;;;;5.90;5.15;;;8.30;99.90;;;;;;5007789;28;20048;-86
2023/03/24 02:22:00;;;;;;;5.88;4.82;;;8.30;99.90;;;;;;5045135;28;20053;-87
2023/03/24 02:24:31;;;;;;;9.15;5.03;;;8.50;99.90;;;;;;5013276;28;20057;-88
2023/03/24 02:27:21;;;;;;;8.35;6.07;;;8.40;99.90;;;;;;5045097;28;20060;-86
2023/03/24 02:30:14;;;;;;;5.55;5.05;;;8.10;99.90;;;;;;5023228;28;20056;-87
2023/03/24 02:32:48;;;;;;;7.57;5.72;;;7.80;99.90;;;;;;5044895;28;20769;-87
2023/03/24 02:35:19;;;;;;;10.65;5.95;;;7.60;99.90;;;;;;5012454;28;20800;-87
2023/03/24 02:37:59;;;;;;;5.55;5.05;;;7.60;99.90;;;;;;5045465;28;20433;-87
2023/03/24 02:40:53;;;;;;;8.23;5.05;;;7.70;99.90;;;;;;5028381;28;20048;-87
2023/03/24 02:43:36;;;;;;;6.32;4.78;;;7.90;99.90;;;;;;5044395;28;20429;-87
2023/03/24 02:46:12;;;;;;;5.25;4.75;;;7.90;99.90;;;;;;5045378;28;20049;-87
2023/03/24 02:49:02;;;;;;;4.93;4.45;;;7.70;99.90;;;;;;5042497;28;20089;-87
2023/03/24 02:51:55;;;;;;;7.50;5.18;;;7.70;99.90;;;;;;5026983;28;20044;-87
2023/03/24 02:54:34;;;;;;;7.03;5.88;;;7.90;99.90;;;;;;5029867;28;20410;-87
2023/03/24 02:57:30;;;;;;;5.32;4.82;;;8.00;99.90;;;;;;5029929;28;20425;-87
2023/03/24 03:00:47;;;;;;;5.40;4.80;;;8.00;99.90;;;;;;5030576;28;20049;-87
2023/03/24 03:03:40;;;;;;;4.85;4.38;;;8.00;99.90;;;;;;5042639;28;20049;-87
2023/03/24 03:06:30;;;;;;;5.05;4.60;;;8.00;99.90;;;;;;5012914;28;20055;-87
2023/03/24 03:09:01;;;;;;;5.32;4.85;;;8.10;99.90;;;;;;5023844;28;20749;-87
2023/03/24 03:11:29;;;;;;;7.93;4.43;;;8.20;99.90;;;;;;5028211;28;20059;-87
2023/03/24 03:14:02;;;;;;;4.28;3.58;;;8.30;99.90;;;;;;5043677;28;20056;-87
2023/03/24 03:16:45;;;;;;;5.07;4.32;;;8.40;99.90;;;;;;5044834;28;20376;-88
2023/03/24 03:19:21;;;;;;;6.22;5.60;;;8.40;99.90;;;;;;5044618;28;20048;-87
2023/03/24 03:21:51;;;;;;;3.67;3.35;;;8.60;99.90;;;;;;5043849;28;20273;-87
2023/03/24 03:24:26;;;;;;;4.95;4.00;;;8.70;99.90;;;;;;5045105;28;20057;-87
2023/03/24 03:27:00;;;;;;;6.15;4.10;;;8.70;99.90;;;;;;5022575;28;20060;-87
2023/03/24 03:29:34;;;;;;;5.22;3.28;;;8.60;99.90;;;;;;5042848;28;20067;-87
2023/03/24 03:32:08;;;;;;;6.32;4.88;;;8.80;99.90;;;;;;5044969;28;20061;-87
2023/03/24 03:34:38;;;;;;;4.70;3.97;;;8.80;99.90;;;;;;5046486;28;20419;-88
2023/03/24 03:37:36;;;;;;;5.05;4.65;;;8.80;99.90;;;;;;5028301;28;20060;-87
2023/03/24 03:40:16;;;;;;;5.47;4.55;;;8.80;99.90;;;;;;5010153;28;20052;-87
2023/03/24 03:42:50;;;;;;;3.45;3.15;;;8.80;99.90;;;;;;5040085;28;20055;-87
2023/03/24 03:45:18;;;;;;;3.78;3.08;;;8.80;99.90;;;;;;5043707;28;20546;-86
2023/03/24 03:47:47;;;;;;;8.20;5.32;;;8.80;99.90;;;;;;5027684;28;20056;-87
2023/03/24 03:50:15;;;;;;;6.13;4.32;;;9.10;99.90;;;;;;5030484;28;20052;-87
2023/03/24 03:52:43;;;;;;;7.40;4.07;;;9.20;99.90;;;;;;5049089;28;20057;-87
2023/03/24 03:55:12;;;;;;;10.88;3.35;;;9.00;99.90;;;;;;5027311;28;20072;-87
2023/03/24 03:57:44;;;;;;;7.47;3.88;;;9.00;99.90;;;;;;5026954;28;20049;-87
2023/03/24 04:00:21;;;;;;;6.82;3.85;;;8.90;99.90;;;;;;5022683;28;20060;-88
2023/03/24 04:03:56;;;;;;;6.68;4.68;;;8.90;99.90;;;;;;5040343;28;20049;-87
2023/03/24 04:07:06;;;;;;;4.43;3.42;;;8.90;99.90;;;;;;4987995;28;20041;-87
2023/03/24 04:10:02;;;;;;;9.68;4.03;;;9.00;99.90;;;;;;5010542;28;20045;-87
2023/03/24 04:12:56;;;;;;;5.68;4.80;;;9.10;99.90;;;;;;5025075;28;20064;-87
2023/03/24 04:15:56;;;;;;;5.72;4.50;;;9.10;99.90;;;;;;5013928;28;20048;-87
2023/03/24 04:19:18;;;;;;;5.80;3.70;;;9.00;99.90;;;;;;5026224;28;20530;-87
2023/03/24 04:21:52;;;;;;;5.38;4.55;;;9.00;99.90;;;;;;5026536;28;20045;-86
2023/03/24 04:24:49;;;;;;;3.55;3.25;;;9.00;99.90;;;;;;5044701;28;20513;-87
2023/03/24 04:27:37;;;;;;;5.78;4.80;;;8.90;99.90;;;;;;5010926;28;20044;-88
2023/03/24 04:30:43;;;;;;;4.85;3.15;;;8.90;99.90;;;;;;5028129;28;20049;-87
2023/03/24 04:33:32;;;;;;;4.55;3.50;;;9.00;99.90;;;;;;5027387;28;20059;-88
2023/03/24 04:36:17;;;;;;;6.07;4.07;;;9.00;99.90;;;;;;4990450;28;20076;-88
2023/03/24 04:39:18;;;;;;;3.45;3.15;;;8.90;99.90;;;;;;5026841;28;20505;-87
2023/03/24 04:41:51;;;;;;;4.55;3.65;;;8.90;99.90;;;;;;5026333;28;20053;-87
2023/03/24 04:44:26;;;;;;;5.07;3.40;;;8.90;99.90;;;;;;5043055;28;20063;-87
2023/03/24 04:47:27;;;;;;;7.10;4.60;;;8.90;99.90;;;;;;4990611;28;20694;-87
2023/03/24 04:50:31;;;;;;;6.63;4.80;;;9.00;99.90;;;;;;5026491;28;20060;-86
2023/03/24 04:53:02;;;;;;;6.68;3.42;;;9.10;99.90;;;;;;5026672;28;20071;-87
2023/03/24 04:55:33;;;;;;;8.73;5.25;;;9.10;99.90;;;;;;5042088;28;20045;-87
2023/03/24 04:58:01;;;;;;;7.85;4.22;;;9.20;99.90;;;;;;5027766;28;20048;-87
2023/03/24 05:00:30;;;;;;;5.20;3.92;;;9.30;99.90;;;;;;5043521;28;20542;-88
2023/03/24 05:02:59;;;;;;;7.18;4.72;;;9.20;99.90;;;;;;5043390;28;20049;-87
2023/03/24 05:05:27;;;;;;;6.22;4.43;;;9.10;99.90;;;;;;5043386;28;20568;-87
2023/03/24 05:07:59;;;;;;;6.65;5.30;;;9.20;99.90;;;;;;5027029;28;20505;-87
2023/03/24 05:10:27;;;;;;;5.72;5.03;;;9.20;99.90;;;;;;5010989;28;20439;-87
2023/03/24 05:12:57;;;;;;;6.97;6.30;;;9.20;99.90;;;;;;5026006;28;20052;-86
2023/03/24 05:15:25;;;;;;;6.72;4.82;;;9.20;99.90;;;;;;5027234;28;20037;-87
2023/03/24 05:18:09;;;;;;;7.50;5.82;;;9.10;99.90;;;;;;4995667;28;20036;-88
2023/03/24 05:20:37;;;;;;;5.45;4.70;;;9.10;99.90;;;;;;5044941;28;20048;-87
2023/03/24 05:23:16;;;;;;;5.28;4.53;;;9.10;99.90;;;;;;5025886;28;20513;-87
2023/03/24 05:25:46;;;;;;;6.80;5.57;;;9.00;99.90;;;;;;5043281;28;20056;-87
2023/03/24 05:28:15;;;;;;;8.65;4.93;;;8.90;99.90;;;;;;5042953;28;20049;-87
2023/03/24 05:30:43;;;;;;;5.95;5.40;;;8.90;99.90;;;;;;5020339;28;20045;-86
2023/03/24 05:33:21;;;;;;;7.03;5.63;;;8.70;99.90;;;;;;5043308;28;20052;-87
2023/03/24 05:35:49;;;;;;;9.40;6.53;;;8.70;99.90;;;;;;5027350;28;20067;-87
2023/03/24 05:38:17;;;;;;;8.25;6.93;;;8.60;99.90;;;;;;5024281;28;20505;-87
2023/03/24 05:40:48;;;;;;;;;;;8.60;99.90;;;;;;5043778;28;20376;-88
2023/03/24 05:43:17;;;;;;;6.68;6.00;;;8.60;99.90;;;;;;5025971;28;19932;-86
2023/03/24 05:45:58;;;;;;;7.22;6.50;;;8.60;99.90;;;;;;5027051;28;20049;-87
2023/03/24 05:48:30;;;;;;;7.20;5.32;;;8.70;99.90;;;;;;5037815;28;20091;-86
2023/03/24 05:51:09;;;;;;;7.13;5.55;;;8.80;99.90;;;;;;5031659;28;20044;-87
2023/03/24 05:53:37;;;;;;;5.95;5.45;;;8.90;99.90;;;;;;5010128;28;20068;-87
2023/03/24 05:56:05;;;;;;;5.30;4.00;;;9.00;99.90;;;;;;5043396;28;20057;-87
2023/03/24 05:58:54;;;;;;;6.97;5.78;;;8.90;99.90;;;;;;5042344;28;20375;-87
2023/03/24 06:01:27;;;;;;;11.02;6.47;;;9.00;99.90;;;;;;5007327;28;20060;-88
2023/03/24 06:04:06;;;;;;;6.63;5.10;;;9.00;99.90;;;;;;5028658;28;20064;-85
2023/03/24 06:06:34;;;;;;;9.80;6.40;;;9.10;99.90;;;;;;5043796;28;20044;-86
2023/03/24 06:09:03;;;;;;;6.85;5.05;;;9.20;99.90;;;;;;5026637;28;20061;-89
2023/03/24 06:11:31;;;;;;;9.07;6.45;;;9.30;99.90;;;;;;5042196;28;20441;-88
2023/03/24 06:14:06;;;;;;;5.72;4.90;;;9.40;99.90;;;;;;5019630;28;20049;-86
2023/03/24 06:16:49;;;;;;;7.00;4.38;;;9.40;99.90;;;;;;5041708;28;20099;-84
2023/03/24 06:19:21;;;;;;;6.03;5.15;;;9.40;99.90;;;;;;5025178;28;20044;-89
2023/03/24 06:22:01;;;;;;;6.95;4.72;;;9.50;99.90;;;;;;5024977;28;20044;-87
2023/03/24 06:24:33;;;;;;;8.85;5.22;;;9.50;99.90;;;;;;5026196;28;20533;-87
2023/03/24 06:27:07;;;;;;;7.68;5.85;;;9.50;99.90;;;;;;5009639;28;20052;-87
2023/03/24 06:29:35;;;;;;;6.97;4.95;;;9.60;99.90;;;;;;5040708;28;20057;-88
2023/03/24 06:32:04;;;;;;;6.80;4.72;;;9.70;99.90;;;;;;5025521;28;20064;-87
2023/03/24 06:34:45;;;;;;;9.23;5.18;;;9.80;99.90;;;;;;5045739;28;20775;-87
2023/03/24 06:37:21;;;;;;;7.30;4.60;;;9.70;99.90;;;;;;5029813;28;20456;-88
2023/03/24 06:39:50;;;;;;;6.40;5.80;;;9.60;99.90;;;;;;5029040;28;20072;-87
2023/03/24 06:42:25;;;;;;;4.40;3.90;;;9.60;99.90;;;;;;5027997;28;20040;-89
2023/03/24 06:44:54;;;;;;;4.80;4.30;;;9.60;99.90;;;;;;5029531;28;20061;-89
2023/03/24 06:47:22;;;;;;;6.38;5.30;;;9.80;99.90;;;;;;5030067;28;20041;-88
2023/03/24 06:49:50;;;;;;;6.25;3.80;;;9.90;99.90;;;;;;5043047;28;20045;-88
2023/03/24 06:52:18;;;;;;;5.25;4.50;;;9.90;99.90;;;;;;5062248;28;20049;-88
2023/03/24 06:54:46;;;;;;;4.50;4.10;;;10.00;99.90;;;;;;5028526;28;20052;-88
2023/03/24 06:57:23;;;;;;;5.28;4.05;;;10.20;99.90;;;;;;5024990;28;20111;-87
2023/03/24 07:00:10;;;;;;;5.75;4.38;;;10.40;99.90;;;;;;5047061;28;20123;-87
2023/03/24 07:02:52;;;;;;;6.55;4.55;;;10.40;99.90;;;;;;5046557;28;20049;-87
2023/03/24 07:05:20;;;;;;;4.78;4.38;;;10.30;99.90;;;;;;5029742;28;20437;-87
2023/03/24 07:07:49;;;;;;;5.70;4.35;;;10.30;99.90;;;;;;5044052;28;20049;-87
2023/03/24 07:10:39;;;;;;;6.25;4.32;;;10.30;99.90;;;;;;5046234;28;20052;-87
2023/03/24 07:13:08;;;;;;;9.07;4.93;;;10.30;99.90;;;;;;5046003;28;20049;-87
2023/03/24 07:15:40;;;;;;;6.72;4.63;;;10.40;99.90;;;;;;5030529;28;20041;-87
2023/03/24 07:18:10;;;;;;;7.57;5.93;;;10.40;99.90;;;;;;5013779;28;20422;-87
2023/03/24 07:20:41;;;;;;;9.15;6.38;;;10.50;99.90;;;;;;5028875;28;20430;-88
2023/03/24 07:23:17;;;;;;;4.85;4.03;;;10.70;99.90;;;;;;5046129;28;20056;-89
2023/03/24 07:25:45;;;;;;;7.93;4.97;;;10.80;99.90;;;;;;5046421;28;20488;-88
2023/03/24 07:28:33;;;;;;;8.30;6.53;;;11.00;99.90;;;;;;5029420;28;20045;-88
2023/03/24 07:31:05;;;;;;;6.20;5.45;;;11.20;99.90;;;;;;5044310;28;20044;-87
2023/03/24 07:33:33;;;;;;;4.90;4.40;;;11.30;99.90;;;;;;5027706;28;20057;-87
2023/03/24 07:36:06;;;;;;;4.80;4.30;;;11.30;99.90;;;;;;5044985;28;20428;-89
2023/03/24 07:38:37;;;;;;;6.43;5.10;;;11.50;99.90;;;;;;5022675;28;20402;-89
2023/03/24 07:41:09;;;;;;;4.63;4.22;;;11.60;99.90;;;;;;5044710;28;20068;-89
2023/03/24 07:43:41;;;;;;;5.25;4.82;;;11.60;99.90;;;;;;5023377;28;20052;-87
2023/03/24 07:46:20;;;;;;;8.88;6.53;;;11.60;99.90;;;;;;5025901;28;20666;-89
2023/03/24 07:48:51;;;;;;;4.55;4.15;;;11.50;99.90;;;;;;5028264;28;20052;-88
2023/03/24 07:51:19;;;;;;;;;;;11.70;99.90;;;;;;5044006;28;20545;-90
2023/03/24 07:54:05;;;;;;;4.85;4.45;;;11.70;99.90;;;;;;5046845;28;19931;-89
2023/03/24 07:56:41;;;;;;;5.43;4.68;;;11.70;99.90;;;;;;5045639;28;20045;-88
2023/03/24 07:59:11;;;;;;;5.30;4.75;;;11.70;99.90;;;;;;5027352;28;20401;-89
2023/03/24 08:01:50;;;;;;;5.22;4.60;;;11.60;99.90;;;;;;5030048;28;20045;-89
2023/03/24 08:05:18;;;;;;;5.57;4.80;;;11.70;99.90;;;;;;5041191;28;20060;-88
2023/03/24 08:07:57;;;;;;;6.90;5.55;;;11.70;99.90;;;;;;5013130;28;20052;-88
2023/03/24 08:10:27;;;;;;;12.85;6.20;;;11.70;99.90;;;;;;5044280;28;20405;-87
2023/03/24 08:12:56;;;;;;;6.22;4.28;;;11.60;99.90;;;;;;5044647;28;20496;-88
2023/03/24 08:15:26;;;;;;;10.57;5.97;;;11.50;99.90;;;;;;5044836;28;20503;-90
2023/03/24 08:17:55;;;;;;;22.60;8.98;;;11.70;99.90;;;;;;5023145;28;20424;-88
2023/03/24 08:20:25;;;;;;;8.38;6.70;;;11.60;99.90;;;;;;5044976;28;20045;-88
2023/03/24 08:22:54;;;;;;;8.25;7.43;;;11.60;99.90;;;;;;5045402;28;20761;-86
2023/03/24 08:25:24;;;;;;;8.02;6.57;;;11.50;99.90;;;;;;5045423;28;20052;-88
2023/03/24 08:27:53;;;;;;;9.90;7.53;;;11.50;99.90;;;;;;5027533;28;20480;-87
2023/03/24 08:30:24;;;;;;;9.20;6.43;;;11.50;99.90;;;;;;5044097;28;20047;-87
2023/03/24 08:32:54;;;;;;;7.22;6.18;;;11.60;99.90;;;;;;5028660;28;20055;-89
2023/03/24 08:35:26;;;;;;;8.70;6.18;;;11.80;99.90;;;;;;5036408;28;20044;-89
2023/03/24 08:38:01;;;;;;;6.68;5.95;;;11.90;99.90;;;;;;5015451;28;20048;-89
2023/03/24 08:40:34;;;;;;;11.18;6.05;;;11.90;99.90;;;;;;5044570;28;20447;-88
2023/03/24 08:43:07;;;;;;;8.48;6.00;;;11.90;99.90;;;;;;5043774;28;20076;-87
2023/03/24 08:45:36;;;;;;;8.63;6.30;;;12.00;99.90;;;;;;5026564;28;20437;-89
2023/03/24 08:48:06;;;;;;;8.77;7.68;;;12.10;99.90;;;;;;5027998;28;20518;-88
2023/03/24 08:50:39;;;;;;;7.85;7.07;;;12.20;99.90;;;;;;5043111;28;20057;-88
2023/03/24 08:53:08;;;;;;;5.25;4.85;;;12.50;99.90;;;;;;5045144;28;20056;-88
2023/03/24 08:55:40;;;;;;;10.45;6.93;;;12.70;99.90;;;;;;5042413;28;20049;-88
2023/03/24 08:58:21;;;;;;;8.52;5.78;;;12.80;99.90;;;;;;5043447;28;20059;-88
2023/03/24 09:00:52;;;;;;;7.72;4.97;;;12.90;99.90;;;;;;5040102;28;20059;-89
2023/03/24 09:03:21;;;;;;;5.68;4.68;;;13.00;99.90;;;;;;5045353;28;20394;-88
2023/03/24 09:05:49;;;;;;;5.35;4.85;;;13.00;99.90;;;;;;5028279;28;20044;-88
2023/03/24 09:08:18;;;;;;;5.65;4.93;;;13.00;99.90;;;;;;5044279;28;20041;-88
2023/03/24 09:10:46;;;;;;;7.30;4.70;;;13.00;99.90;;;;;;5045850;28;20445;-89
2023/03/24 09:13:15;;;;;;;4.65;3.42;;;12.90;99.90;;;;;;5043297;28;20049;-89
2023/03/24 09:15:52;;;;;;;6.82;4.63;;;13.00;99.90;;;;;;5027154;28;20052;-89
2023/03/24 09:18:21;;;;;;;5.63;3.95;;;13.10;99.90;;;;;;5043359;28;20417;-88
2023/03/24 09:20:50;;;;;;;4.72;3.85;;;13.20;99.90;;;;;;5043164;28;20071;-89
2023/03/24 09:23:20;;;;;;;4.45;3.83;;;13.30;99.90;;;;;;5026186;28;20049;-88
2023/03/24 09:25:50;;;;;;;3.53;3.22;;;13.30;99.90;;;;;;5038023;28;20045;-89
2023/03/24 09:28:18;;;;;;;9.77;4.82;;;13.30;99.90;;;;;;5042486;28;20067;-89
2023/03/24 09:30:46;;;;;;;5.32;3.30;;;13.40;99.90;;;;;;5042272;28;20056;-88
2023/03/24 09:33:15;;;;;;;5.90;4.35;;;13.40;99.90;;;;;;5043108;28;20049;-88
2023/03/24 09:35:43;;;;;;;7.20;3.65;;;13.50;99.90;;;;;;5044522;28;20052;-88
2023/03/24 09:38:11;;;;;;;3.72;3.35;;;13.50;99.90;;;;;;5043458;28;20068;-88
2023/03/24 09:40:42;;;;;;;4.32;3.53;;;13.50;99.90;;;;;;5042923;28;20053;-89
2023/03/24 09:43:35;;;;;;;2.65;2.42;;;13.50;99.90;;;;;;5005568;28;20048;-85
2023/03/24 09:46:05;;;;;;;6.15;4.28;;;13.60;99.90;;;;;;5025760;28;20045;-87
2023/03/24 09:48:55;;;;;;;2.60;2.40;;;13.50;99.90;;;;;;5042799;28;20060;-85
2023/03/24 09:51:28;;;;;;;3.65;3.35;;;13.50;99.90;;;;;;5038635;28;20053;-86
2023/03/24 09:53:59;;;;;;;6.07;4.25;;;13.50;99.90;;;;;;5042404;28;20056;-86
2023/03/24 09:56:29;;;;;;;2.75;2.50;;;13.50;99.90;;;;;;5041529;28;20057;-86
2023/03/24 09:59:18;;;;;;;4.28;3.05;;;13.40;99.90;;;;;;5040199;28;20359;-85
2023/03/24 10:01:47;;;;;;;4.13;3.40;;;13.40;99.90;;;;;;5022308;28;20053;-86
2023/03/24 10:04:19;;;;;;;3.47;2.65;;;13.30;99.90;;;;;;5040151;28;20052;-85
2023/03/24 10:06:52;;;;;;;3.65;2.80;;;13.10;99.90;;;;;;5042167;28;20049;-87
2023/03/24 10:09:27;;;;;;;5.13;2.78;;;13.10;99.90;;;;;;5045932;28;20072;-84
2023/03/24 10:12:20;;;;;;;3.30;2.80;;;13.00;99.90;;;;;;5045904;28;20065;-84
2023/03/24 10:14:50;;;;;;;2.92;2.72;;;12.90;99.90;;;;;;5019770;28;20416;-84
2023/03/24 10:17:38;;;;;;;3.80;3.45;;;12.80;99.90;;;;;;5046159;28;20060;-84
2023/03/24 10:20:17;;;;;;;3.53;3.20;;;12.60;99.90;;;;;;4992334;28;20048;-85
2023/03/24 10:23:31;;;;;;;3.40;3.05;;;12.60;99.90;;;;;;5027838;28;20048;-88
2023/03/24 10:26:03;;;;;;;3.13;2.78;;;12.40;99.90;;;;;;5042077;28;20049;-85
2023/03/24 10:28:45;;;;;;;3.90;3.58;;;12.30;99.90;;;;;;5045524;28;20527;-85
2023/03/24 10:31:16;;;;;;;2.55;2.35;;;12.30;99.90;;;;;;5046351;28;20059;-86
2023/03/24 10:33:45;;;;;;;4.90;3.28;;;12.30;99.90;;;;;;5048036;28;20053;-85
2023/03/24 10:36:15;;;;;;;4.65;3.17;;;12.20;99.90;;;;;;5029592;28;20053;-85
2023/03/24 10:38:43;;;;;;;3.83;3.33;;;12.20;99.90;;;;;;5031714;28;20064;-87
2023/03/24 10:41:26;;;;;;;11.20;4.03;;;12.40;99.90;;;;;;5046591;28;20040;-86
2023/03/24 10:43:56;;;;;;;3.47;2.88;;;12.30;99.90;;;;;;4960509;28;20057;-86
2023/03/24 10:46:26;;;;;;;2.90;2.60;;;12.20;99.90;;;;;;5004496;28;20042;-85
2023/03/24 10:49:17;;;;;;;6.38;3.75;;;12.20;99.90;;;;;;5005716;28;20061;-84
2023/03/24 10:51:48;;;;;;;2.95;2.60;;;12.00;99.90;;;;;;5004588;28;20417;-84
2023/03/24 10:54:20;;;;;;;3.75;2.55;;;12.00;99.90;;;;;;4999910;28;20490;-84
2023/03/24 10:56:57;;;;;;;5.45;3.22;;;12.00;99.90;;;;;;4989271;28;20061;-85
2023/03/24 10:59:37;;;;;;;3.67;3.38;;;12.00;99.90;;;;;;4987370;28;20510;-87
2023/03/24 11:02:17;;;;;;;6.13;4.13;;;11.90;99.90;;;;;;5003153;28;20197;-87
2023/03/24 11:05:15;;;;;;;8.63;4.53;;;11.90;99.90;;;;;;4989849;28;20671;-85
2023/03/24 11:07:46;;;;;;;5.10;4.00;;;11.90;99.90;;;;;;4985438;28;20065;-86
2023/03/24 11:10:24;;;;;;;3.83;3.53;;;11.90;99.90;;;;;;5000790;28;20076;-86
2023/03/24 11:12:56;;;;;;;3.28;2.97;;;11.90;99.90;;;;;;5004606;28;20062;-86
2023/03/24 11:15:30;;;;;;;5.35;2.80;;;11.90;99.90;;;;;;5007539;28;20647;-84
2023/03/24 11:18:00;;;;;;;8.95;4.57;;;12.00;99.90;;;;;;5027459;28;20364;-87
2023/03/24 11:20:30;;;;;;;3.35;2.97;;;11.90;99.90;;;;;;5044119;28;20258;-87
2023/03/24 11:23:31;;;;;;;3.40;3.10;;;11.90;99.90;;;;;;5009325;28;20898;-85
2023/03/24 11:26:06;;;;;;;3.13;2.92;;;11.90;99.90;;;;;;5043373;28;20045;-85
2023/03/24 11:28:40;;;;;;;3.00;2.72;;;11.90;99.90;;;;;;5045979;28;20425;-85
2023/03/24 11:31:23;;;;;;;3.53;3.22;;;11.90;99.90;;;;;;5047054;28;20049;-85
2023/03/24 11:34:08;;;;;;;4.05;3.10;;;11.90;99.90;;;;;;5042465;28;20048;-84
2023/03/24 11:36:41;;;;;;;3.72;3.15;;;11.80;99.90;;;;;;5041896;28;20052;-86
2023/03/24 11:39:18;;;;;;;2.85;2.65;;;11.70;99.90;;;;;;5044018;28;20757;-85
2023/03/24 11:42:00;;;;;;;3.53;3.22;;;11.70;99.90;;;;;;5046552;28;20060;-86
2023/03/24 11:44:37;;;;;;;3.10;2.83;;;11.70;99.90;;;;;;5039779;28;20060;-86
2023/03/24 11:47:15;;;;;;;2.58;2.22;;;11.70;99.90;;;;;;5045721;28;20394;-87
2023/03/24 11:49:59;;;;;;;2.65;2.45;;;11.70;99.90;;;;;;5029096;28;20059;-85
2023/03/24 11:52:32;;;;;;;2.92;2.60;;;11.80;99.90;;;;;;5004963;28;20052;-83
2023/03/24 11:55:00;;;;;;;3.08;2.85;;;11.70;99.90;;;;;;5038302;28;20060;-86
2023/03/24 11:57:57;;;;;;;2.40;2.20;;;11.70;99.90;;;;;;5046257;28;20053;-85
2023/03/24 12:00:32;;;;;;;5.75;3.13;;;11.80;99.90;;;;;;5000800;28;20045;-84
2023/03/24 12:03:31;;;;;;;3.95;2.85;;;11.90;99.90;;;;;;5028418;28;20049;-89
2023/03/24 12:06:22;;;;;;;2.92;2.63;;;11.70;99.90;;;;;;5058917;28;20033;-87
2023/03/24 12:08:53;;;;;;;3.33;2.10;;;11.80;99.90;;;;;;5043764;28;20422;-87
2023/03/24 12:11:43;;;;;;;3.07;2.77;;;12.00;99.90;;;;;;5043875;28;20053;-87
2023/03/24 12:14:18;;;;;;;2.53;2.25;;;12.20;99.90;;;;;;5033210;28;20589;-87
2023/03/24 12:17:07;;;;;;;2.60;2.50;;;12.50;99.90;;;;;;5047682;28;20049;-87
2023/03/24 12:19:51;;;;;;;2.63;2.42;;;12.70;99.90;;;;;;5016317;28;20056;-88
2023/03/24 12:22:45;;;;;;;3.90;2.58;;;12.80;99.90;;;;;;5044632;28;20060;-89
2023/03/24 12:25:27;;;;;;;4.10;2.60;;;13.00;99.90;;;;;;5029087;28;20063;-87
2023/03/24 12:28:03;;;;;;;4.03;3.40;;;13.20;99.90;;;;;;5027916;28;20367;-86
2023/03/24 12:30:58;;;;;;;3.28;2.35;;;13.60;99.90;;;;;;5043818;28;20053;-89
2023/03/24 12:33:39;;;;;;;3.22;2.83;;;14.00;99.90;;;;;;5045302;28;20056;-87
2023/03/24 12:36:30;;;;;;;;;;;13.90;99.90;;;;;;5046299;28;20057;-87
2023/03/24 12:39:09;;;;;;;3.38;2.13;;;14.10;99.90;;;;;;5045222;28;19932;-85
2023/03/24 12:41:49;;;;;;;2.90;2.60;;;14.10;99.90;;;;;;5046600;28;20048;-87
2023/03/24 12:44:38;;;;;;;3.60;2.95;;;14.10;99.90;;;;;;5046700;28;20329;-87
2023/03/24 12:47:27;;;;;;;3.10;2.15;;;14.00;99.90;;;;;;5046421;28;20052;-88
2023/03/24 12:50:18;;;;;;;2.42;2.22;;;14.10;99.90;;;;;;5031250;28;20045;-88
2023/03/24 12:53:06;;;;;;;2.00;1.83;;;14.10;99.90;;;;;;5045013;28;20056;-86
2023/03/24 12:56:00;;;;;;;2.65;2.45;;;14.10;99.90;;;;;;5043989;28;20056;-86
2023/03/24 12:58:48;;;;;;;7.75;2.78;;;14.10;99.90;;;;;;5026844;28;20061;-87
2023/03/24 13:01:24;;;;;;;3.50;2.50;;;14.20;99.90;;;;;;5031454;28;20048;-90
2023/03/24 13:03:58;;;;;;;3.28;3.03;;;14.00;99.90;;;;;;5047816;28;20061;-87
2023/03/24 13:06:37;;;;;;;4.00;3.35;;;14.00;99.90;;;;;;5024019;28;20247;-87
2023/03/24 13:09:17;;;;;;;3.85;3.55;;;14.00;99.90;;;;;;5047982;28;20041;-86
2023/03/24 13:11:53;;;;;;;4.07;3.15;;;14.00;99.90;;;;;;5026341;28;20071;-88
2023/03/24 13:14:28;;;;;;;3.25;2.85;;;14.00;99.90;;;;;;5037217;28;20432;-87
2023/03/24 13:17:06;;;;;;;3.60;3.22;;;13.90;99.90;;;;;;5014270;28;20045;-88
2023/03/24 13:19:36;;;;;;;2.92;2.65;;;14.00;99.90;;;;;;5046021;28;20049;-88
2023/03/24 13:22:11;;;;;;;3.65;3.30;;;14.00;99.90;;;;;;5030912;28;20056;-85
2023/03/24 13:24:40;;;;;;;2.97;2.70;;;14.00;99.90;;;;;;5031615;28;20052;-88
2023/03/24 13:27:15;;;;;;;4.30;3.70;;;14.10;99.90;;;;;;5049339;28;20078;-88
2023/03/24 13:30:07;;;;;;;2.88;2.47;;;14.20;99.90;;;;;;5046622;28;20269;-87
2023/03/24 13:32:43;;;;;;;2.72;2.47;;;14.30;99.90;;;;;;5040675;28;20064;-85
2023/03/24 13:36:02;;;;;;;2.65;2.45;;;14.30;99.90;;;;;;5030489;28;20048;-88
2023/03/24 13:38:42;;;;;;;2.38;2.17;;;14.20;99.90;;;;;;5039350;28;20044;-88
2023/03/24 13:41:16;;;;;;;4.63;3.47;;;14.10;99.90;;;;;;5027456;28;20052;-87
2023/03/24 13:43:50;;;;;;;2.33;2.13;;;13.90;99.90;;;;;;5044654;28;20048;-87